Time;durP1;ratioP1;P1;durP2;ratioP2;P2;SDS_P1;SDS_P2;PMS_P1;PMS_P2;Temp;Humidity;BMP_temperature;BMP_pressure;BME280_temperature;BME280_humidity;BME280_pressure;Samples;Min_cycle;Max_cycle;Signal;HPM_P1;HPM_P2
2021/09/17 00:01:07;;;;;;;7.43;5.00;;;;;;;12.11;100.00;99146.34;4918700;29;20048;-81
2021/09/17 00:03:34;;;;;;;8.38;5.00;;;;;;;12.13;100.00;99153.25;4920720;29;20056;-81
2021/09/17 00:06:01;;;;;;;14.85;5.75;;;;;;;12.26;100.00;99163.44;4916924;29;20059;-81
2021/09/17 00:08:27;;;;;;;10.00;6.10;;;;;;;12.18;100.00;99152.69;4922689;29;20476;-81
2021/09/17 00:10:56;;;;;;;7.88;5.50;;;;;;;12.15;100.00;99150.34;4935042;29;20400;-81
2021/09/17 00:13:23;;;;;;;6.50;5.25;;;;;;;12.27;100.00;99158.81;4937271;29;20055;-81
2021/09/17 00:15:50;;;;;;;9.30;5.32;;;;;;;12.31;100.00;99144.59;4926510;29;20055;-81
2021/09/17 00:18:17;;;;;;;6.90;5.40;;;;;;;12.18;100.00;99148.06;4921114;29;20103;-82
2021/09/17 00:20:47;;;;;;;8.88;5.50;;;;;;;12.17;100.00;99149.09;4918177;29;20052;-81
2021/09/17 00:23:14;;;;;;;13.60;6.32;;;;;;;12.13;100.00;99147.81;4915441;29;20040;-81
2021/09/17 00:25:45;;;;;;;9.05;5.78;;;;;;;12.20;100.00;99145.16;4920356;29;20055;-81
2021/09/17 00:28:13;;;;;;;7.70;5.45;;;;;;;12.16;100.00;99138.41;4918237;29;20060;-82
2021/09/17 00:30:41;;;;;;;9.18;5.80;;;;;;;12.18;100.00;99136.34;4918077;29;20103;-82
2021/09/17 00:33:08;;;;;;;7.35;5.43;;;;;;;12.26;100.00;99135.34;4930219;29;20099;-82
2021/09/17 00:35:35;;;;;;;9.00;5.80;;;;;;;12.22;100.00;99129.44;4920657;29;20535;-81
2021/09/17 00:38:03;;;;;;;10.45;5.18;;;;;;;12.26;100.00;99135.34;4922280;29;20052;-81
2021/09/17 00:40:30;;;;;;;7.25;5.13;;;;;;;12.25;100.00;99131.78;4936850;29;20052;-81
2021/09/17 00:42:57;;;;;;;9.52;5.18;;;;;;;12.34;100.00;99135.19;4936416;29;20055;-82
2021/09/17 00:45:26;;;;;;;7.90;5.40;;;;;;;12.31;100.00;99141.06;4918536;29;20060;-81
2021/09/17 00:47:53;;;;;;;8.50;5.20;;;;;;;12.28;100.00;99138.72;4917546;29;20080;-81
2021/09/17 00:50:23;;;;;;;8.15;5.38;;;;;;;12.26;100.00;99138.09;4917991;29;20044;-82
2021/09/17 00:52:51;;;;;;;6.82;4.70;;;;;;;12.27;100.00;99137.88;4916352;29;20137;-81
2021/09/17 00:55:18;;;;;;;16.55;6.03;;;;;;;12.26;100.00;99138.91;4917190;29;20040;-81
2021/09/17 00:57:45;;;;;;;11.27;6.43;;;;;;;12.31;100.00;99146.50;4921310;29;20484;-80
2021/09/17 01:00:14;;;;;;;7.90;5.00;;;;;;;12.35;100.00;99142.34;4917692;29;20056;-81
2021/09/17 01:02:43;;;;;;;8.98;4.68;;;;;;;12.14;100.00;99115.97;4917401;29;20048;-81
2021/09/17 01:05:11;;;;;;;8.27;5.45;;;;;;;12.31;100.00;99143.78;4917378;29;20115;-81
2021/09/17 01:07:38;;;;;;;8.13;5.45;;;;;;;12.29;100.00;99140.41;4917428;29;20523;-81
2021/09/17 01:10:06;;;;;;;10.90;5.22;;;;;;;12.21;100.00;99141.41;4917077;29;20056;-81
2021/09/17 01:12:33;;;;;;;9.07;5.25;;;;;;;12.22;100.00;99137.63;4931457;29;20048;-81
2021/09/17 01:15:01;;;;;;;9.10;5.22;;;;;;;12.28;100.00;99133.25;4918451;29;20488;-80
2021/09/17 01:17:32;;;;;;;11.18;6.60;;;;;;;12.32;100.00;99131.84;4917516;29;20052;-80
2021/09/17 01:20:00;;;;;;;9.68;5.53;;;;;;;12.29;100.00;99124.88;4917101;29;20052;-81
2021/09/17 01:22:28;;;;;;;6.75;5.15;;;;;;;12.43;100.00;99136.75;4933188;29;20047;-81
2021/09/17 01:24:55;;;;;;;7.80;4.80;;;;;;;12.45;100.00;99128.38;4935412;29;20119;-81
2021/09/17 01:27:23;;;;;;;9.27;4.97;;;;;;;12.35;100.00;99124.09;4931366;29;20444;-80
2021/09/17 01:29:50;;;;;;;8.15;5.72;;;;;;;12.19;100.00;99116.19;4935263;29;20079;-80
2021/09/17 01:32:17;;;;;;;9.93;6.35;;;;;;;12.16;100.00;99108.41;4935379;29;20052;-80
2021/09/17 01:34:44;;;;;;;11.05;5.30;;;;;;;12.25;100.00;99129.03;4916463;29;20056;-80
2021/09/17 01:37:11;;;;;;;11.13;5.57;;;;;;;12.26;100.00;99122.56;4920754;29;20048;-81
2021/09/17 01:39:39;;;;;;;12.77;5.47;;;;;;;12.20;100.00;99115.19;4922034;29;20048;-81
2021/09/17 01:42:06;;;;;;;9.18;5.22;;;;;;;12.26;100.00;99122.56;4916946;29;20056;-80
2021/09/17 01:44:36;;;;;;;8.40;5.35;;;;;;;12.19;100.00;99119.78;4916400;29;20048;-82
2021/09/17 01:47:03;;;;;;;10.55;5.95;;;;;;;12.28;100.00;99125.91;4916826;29;20130;-81
2021/09/17 01:49:30;;;;;;;10.52;6.07;;;;;;;12.32;100.00;99123.66;4926361;29;20106;-80
2021/09/17 01:51:57;;;;;;;9.32;6.30;;;;;;;12.25;100.00;99104.50;4935840;29;20051;-81
2021/09/17 01:54:24;;;;;;;11.02;6.22;;;;;;;12.33;100.00;99117.16;4934559;29;20052;-80
2021/09/17 01:56:52;;;;;;;8.07;5.15;;;;;;;12.36;100.00;99117.63;4923239;29;20055;-80
2021/09/17 01:59:19;;;;;;;8.07;5.88;;;;;;;12.36;100.00;99111.31;4918194;29;20079;-80
2021/09/17 02:01:46;;;;;;;7.57;5.75;;;;;;;12.39;100.00;99111.78;4917002;29;20051;-81
2021/09/17 02:04:13;;;;;;;7.47;5.57;;;;;;;12.37;100.00;99113.00;4916106;29;20108;-81
2021/09/17 02:06:39;;;;;;;8.68;5.97;;;;;;;12.40;100.00;99090.78;4918433;29;20052;-81
2021/09/17 02:09:06;;;;;;;8.45;6.20;;;;;;;12.42;100.00;99094.19;4924870;29;20055;-80
2021/09/17 02:11:33;;;;;;;8.68;5.72;;;;;;;12.39;100.00;99100.88;4934711;29;20048;-80
2021/09/17 02:14:01;;;;;;;15.77;6.10;;;;;;;12.45;100.00;99101.97;4934293;29;20495;-80
2021/09/17 02:16:28;;;;;;;10.70;5.55;;;;;;;12.50;100.00;99093.19;4935218;29;20135;-81
2021/09/17 02:18:55;;;;;;;12.40;5.60;;;;;;;12.54;100.00;99098.03;4916185;29;20056;-81
2021/09/17 02:21:22;;;;;;;10.15;6.22;;;;;;;12.48;100.00;99079.75;4916208;29;20555;-81
2021/09/17 02:23:50;;;;;;;7.78;5.63;;;;;;;12.37;100.00;99083.88;4929554;29;20169;-81
2021/09/17 02:26:18;;;;;;;11.98;6.00;;;;;;;12.35;100.00;99091.38;4927345;29;20052;-80
2021/09/17 02:28:45;;;;;;;9.18;6.05;;;;;;;12.38;100.00;99090.16;4918853;29;20044;-80
2021/09/17 02:31:13;;;;;;;7.38;5.38;;;;;;;12.39;100.00;99097.31;4915905;29;20105;-81
2021/09/17 02:33:40;;;;;;;8.27;5.60;;;;;;;12.34;100.00;99094.31;4915998;29;20060;-80
2021/09/17 02:36:07;;;;;;;10.43;6.32;;;;;;;12.40;100.00;99085.34;4930170;29;20052;-80
2021/09/17 02:38:34;;;;;;;9.38;6.25;;;;;;;12.44;100.00;99091.25;4934802;29;20106;-80
2021/09/17 02:41:03;;;;;;;7.43;5.68;;;;;;;12.46;100.00;99083.72;4934402;29;20510;-80
2021/09/17 02:43:31;;;;;;;9.13;5.88;;;;;;;12.44;100.00;99083.91;4934712;29;20103;-80
2021/09/17 02:45:59;;;;;;;12.63;5.88;;;;;;;12.44;100.00;99073.00;4933772;29;20488;-80
2021/09/17 02:48:27;;;;;;;9.68;6.53;;;;;;;12.49;100.00;99086.03;4919415;29;20141;-80
2021/09/17 02:50:57;;;;;;;9.23;5.57;;;;;;;12.53;100.00;99090.06;4919378;29;20385;-80
2021/09/17 02:53:24;;;;;;;10.07;6.18;;;;;;;12.47;100.00;99072.59;4938770;29;20061;-80
2021/09/17 02:55:51;;;;;;;10.70;5.93;;;;;;;12.45;100.00;99074.69;4938547;29;20456;-81
2021/09/17 02:58:18;;;;;;;11.38;6.32;;;;;;;12.51;100.00;99090.25;4938109;29;20119;-81
2021/09/17 03:00:44;;;;;;;13.95;6.65;;;;;;;12.45;100.00;99082.00;4938685;29;20114;-81
2021/09/17 03:03:11;;;;;;;14.55;6.18;;;;;;;12.46;100.00;99079.09;4927316;29;20059;-80
2021/09/17 03:05:39;;;;;;;10.10;6.20;;;;;;;12.46;100.00;99072.81;4919368;29;20098;-81
2021/09/17 03:08:06;;;;;;;7.82;5.63;;;;;;;12.49;100.00;99075.97;4925212;29;20047;-82
2021/09/17 03:10:33;;;;;;;8.65;5.93;;;;;;;12.50;100.00;99074.09;4938402;29;20051;-81
2021/09/17 03:13:00;;;;;;;11.05;6.70;;;;;;;12.50;100.00;99066.75;4934626;29;20056;-80
2021/09/17 03:15:27;;;;;;;9.02;6.97;;;;;;;12.53;100.00;99070.97;4919192;29;20052;-81
2021/09/17 03:17:54;;;;;;;12.77;7.15;;;;;;;12.64;100.00;99075.84;4919351;29;20059;-81
2021/09/17 03:20:21;;;;;;;10.07;6.15;;;;;;;12.58;100.00;99065.75;4919285;29;20060;-80
2021/09/17 03:22:49;;;;;;;11.73;6.28;;;;;;;12.55;100.00;99072.44;4919249;29;20469;-80
2021/09/17 03:25:16;;;;;;;10.52;6.43;;;;;;;12.65;100.00;99076.72;4920327;29;20043;-80
2021/09/17 03:27:43;;;;;;;13.98;7.28;;;;;;;12.48;100.00;99067.97;4920804;29;20048;-80
2021/09/17 03:30:12;;;;;;;9.88;6.25;;;;;;;12.45;100.00;99076.56;4922003;29;20492;-81
2021/09/17 03:32:39;;;;;;;10.57;6.63;;;;;;;12.45;100.00;99071.97;4920725;29;20139;-80
2021/09/17 03:35:07;;;;;;;11.05;6.05;;;;;;;12.44;100.00;99073.00;4918208;29;20052;-80
2021/09/17 03:37:34;;;;;;;7.60;5.55;;;;;;;12.22;100.00;99061.31;4929668;29;20055;-81
2021/09/17 03:40:02;;;;;;;8.15;5.22;;;;;;;12.21;100.00;99076.00;4922804;29;20048;-81
2021/09/17 03:42:29;;;;;;;7.07;5.10;;;;;;;12.08;100.00;99079.44;4919348;29;20115;-80
2021/09/17 03:44:56;;;;;;;9.93;5.75;;;;;;;12.03;100.00;99085.47;4919710;29;20484;-82
2021/09/17 03:47:23;;;;;;;6.80;5.60;;;;;;;12.06;100.00;99075.22;4928422;29;20127;-81
2021/09/17 03:49:52;;;;;;;7.38;5.43;;;;;;;11.95;100.00;99082.03;4918252;29;20052;-81
2021/09/17 03:52:19;;;;;;;7.15;5.32;;;;;;;11.94;100.00;99085.78;4919133;29;20052;-81
2021/09/17 03:54:46;;;;;;;13.43;5.80;;;;;;;11.71;100.00;99061.47;4922225;29;20052;-81
2021/09/17 03:57:14;;;;;;;8.25;5.72;;;;;;;11.76;100.00;99083.53;4937330;29;20060;-80
2021/09/17 03:59:41;;;;;;;10.30;5.57;;;;;;;11.72;100.00;99072.16;4936761;29;20051;-81
2021/09/17 04:02:07;;;;;;;6.72;5.57;;;;;;;11.60;100.00;99066.38;4920533;29;20056;-81
2021/09/17 04:04:34;;;;;;;9.07;5.57;;;;;;;11.64;100.00;99062.25;4932080;29;20054;-83
2021/09/17 04:07:01;;;;;;;10.63;5.57;;;;;;;11.48;100.00;99049.72;4937637;29;20048;-82
2021/09/17 04:09:28;;;;;;;8.15;4.90;;;;;;;11.52;100.00;99067.34;4936225;29;20051;-82
2021/09/17 04:11:55;;;;;;;7.50;5.53;;;;;;;11.36;100.00;99072.22;4937243;29;20063;-82
2021/09/17 04:14:23;;;;;;;9.38;5.65;;;;;;;11.32;100.00;99072.59;4931176;29;20103;-82
2021/09/17 04:16:50;;;;;;;6.43;5.32;;;;;;;11.47;100.00;99077.13;4917825;29;20086;-82
2021/09/17 04:19:16;;;;;;;8.07;5.43;;;;;;;11.25;100.00;99068.13;4917990;29;20059;-82
2021/09/17 04:21:43;;;;;;;10.00;5.70;;;;;;;11.24;100.00;99071.88;4918528;29;20133;-82
2021/09/17 04:24:10;;;;;;;9.15;5.82;;;;;;;11.21;100.00;99066.81;4918008;29;20488;-82
2021/09/17 04:26:39;;;;;;;12.50;5.75;;;;;;;11.08;100.00;99059.31;4917805;29;20051;-82
2021/09/17 04:29:05;;;;;;;10.32;5.38;;;;;;;11.05;100.00;99078.75;4917948;29;20052;-82
2021/09/17 04:31:34;;;;;;;8.95;5.65;;;;;;;10.96;100.00;99073.41;4918204;29;20045;-82
2021/09/17 04:34:00;;;;;;;7.60;4.95;;;;;;;11.02;100.00;99074.53;4918033;29;20047;-81
2021/09/17 04:36:27;;;;;;;7.38;4.82;;;;;;;10.96;100.00;99084.31;4921303;29;20419;-83
2021/09/17 04:38:54;;;;;;;7.47;5.80;;;;;;;10.83;100.00;99075.13;4916455;29;20445;-83
2021/09/17 04:41:21;;;;;;;8.43;5.15;;;;;;;10.82;100.00;99071.53;4932580;29;20514;-82
2021/09/17 04:43:48;;;;;;;6.25;4.88;;;;;;;10.80;100.00;99070.91;4926334;29;20507;-82
2021/09/17 04:46:15;;;;;;;7.90;5.03;;;;;;;10.85;100.00;99065.72;4916324;29;20060;-82
2021/09/17 04:48:43;;;;;;;6.85;5.63;;;;;;;10.84;100.00;99064.06;4919704;29;20484;-82
2021/09/17 04:51:10;;;;;;;11.20;6.30;;;;;;;10.88;100.00;99078.13;4915447;29;20569;-81
2021/09/17 04:53:36;;;;;;;8.40;5.47;;;;;;;10.84;100.00;99074.06;4916535;29;20397;-82
2021/09/17 04:56:04;;;;;;;7.85;5.78;;;;;;;10.90;100.00;99089.63;4918092;29;20071;-82
2021/09/17 04:58:33;;;;;;;17.95;6.28;;;;;;;10.98;100.00;99086.81;4917890;29;20135;-82
2021/09/17 05:01:00;;;;;;;9.32;6.15;;;;;;;11.05;100.00;99092.34;4918525;29;20040;-82
2021/09/17 05:03:27;;;;;;;7.63;5.65;;;;;;;11.00;100.00;99083.91;4919267;29;20040;-81
2021/09/17 05:05:55;;;;;;;9.48;6.28;;;;;;;11.00;100.00;99076.59;4935261;29;20424;-82
2021/09/17 05:08:22;;;;;;;9.68;5.70;;;;;;;11.06;100.00;99077.72;4936221;29;20052;-82
2021/09/17 05:10:49;;;;;;;9.10;6.18;;;;;;;11.05;100.00;99074.16;4919618;29;20044;-82
2021/09/17 05:13:16;;;;;;;11.93;6.68;;;;;;;11.08;100.00;99072.91;4918853;29;20062;-82
2021/09/17 05:15:42;;;;;;;9.23;5.75;;;;;;;11.24;100.00;99061.81;4917485;29;20047;-82
2021/09/17 05:18:09;;;;;;;9.98;6.07;;;;;;;11.14;100.00;99066.72;4920981;29;20102;-82
2021/09/17 05:20:36;;;;;;;15.02;6.50;;;;;;;11.19;100.00;99068.88;4936121;29;20461;-82
2021/09/17 05:23:05;;;;;;;9.48;6.45;;;;;;;11.34;100.00;99081.41;4918551;29;20051;-82
2021/09/17 05:25:31;;;;;;;12.98;6.40;;;;;;;11.33;100.00;99079.72;4918032;29;20056;-81
2021/09/17 05:27:58;;;;;;;11.80;6.60;;;;;;;11.38;100.00;99076.44;4916602;29;20044;-81
2021/09/17 05:30:25;;;;;;;11.82;6.35;;;;;;;11.37;100.00;99079.34;4916877;29;20056;-81
2021/09/17 05:32:52;;;;;;;10.70;6.57;;;;;;;11.42;100.00;99085.88;4923228;29;20416;-81
2021/09/17 05:35:19;;;;;;;10.50;6.93;;;;;;;11.46;100.00;99089.91;4923037;29;20056;-81
2021/09/17 05:37:46;;;;;;;11.38;6.78;;;;;;;11.45;100.00;99074.59;4919876;29;20044;-81
2021/09/17 05:40:15;;;;;;;8.77;6.15;;;;;;;11.55;100.00;99076.16;4919424;29;20139;-81
2021/09/17 05:42:42;;;;;;;10.30;6.75;;;;;;;11.57;100.00;99068.66;4914500;29;20055;-82
2021/09/17 05:45:10;;;;;;;12.30;7.40;;;;;;;11.69;100.00;99081.56;4918010;29;20044;-81
2021/09/17 05:47:37;;;;;;;12.57;7.18;;;;;;;11.72;100.00;99077.59;4916792;29;20127;-82
2021/09/17 05:50:04;;;;;;;11.10;7.03;;;;;;;11.83;100.00;99093.44;4916801;29;20428;-82
2021/09/17 05:52:31;;;;;;;12.68;7.70;;;;;;;11.90;100.00;99095.38;4918726;29;20515;-81
2021/09/17 05:54:58;;;;;;;12.57;7.40;;;;;;;12.03;100.00;99095.53;4922969;29;20059;-81
2021/09/17 05:57:26;;;;;;;16.85;7.65;;;;;;;12.11;100.00;99100.00;4935486;29;20048;-81
2021/09/17 05:59:53;;;;;;;10.73;7.13;;;;;;;11.89;100.00;99078.19;4917699;29;20071;-81
2021/09/17 06:02:19;;;;;;;11.18;8.27;;;;;;;11.97;100.00;99074.53;4918744;29;20059;-81
2021/09/17 06:04:46;;;;;;;14.05;8.30;;;;;;;11.98;100.00;99078.91;4918638;29;20044;-81
2021/09/17 06:07:13;;;;;;;10.57;7.63;;;;;;;12.19;100.00;99099.84;4920356;29;20048;-81
2021/09/17 06:09:40;;;;;;;20.83;8.80;;;;;;;12.15;100.00;99080.34;4935269;29;20127;-81
2021/09/17 06:12:07;;;;;;;11.00;7.75;;;;;;;12.33;100.00;99077.13;4935106;29;20492;-82
2021/09/17 06:14:36;;;;;;;13.23;7.90;;;;;;;12.30;100.00;99072.06;4915086;29;20224;-82
2021/09/17 06:17:03;;;;;;;15.30;8.63;;;;;;;12.45;100.00;99061.06;4919422;29;20052;-83
2021/09/17 06:19:30;;;;;;;11.88;7.65;;;;;;;12.48;100.00;99071.56;4929342;29;20043;-82
2021/09/17 06:21:57;;;;;;;10.60;7.85;;;;;;;12.50;100.00;99080.38;4934625;29;20075;-82
2021/09/17 06:24:24;;;;;;;13.68;8.32;;;;;;;12.41;100.00;99070.69;4934787;29;20055;-82
2021/09/17 06:26:53;;;;;;;12.35;8.50;;;;;;;12.55;100.00;99072.44;4934514;29;20476;-82
2021/09/17 06:29:20;;;;;;;15.13;7.53;;;;;;;12.70;100.00;99088.69;4934954;29;20067;-82
2021/09/17 06:31:49;;;;;;;15.20;7.72;;;;;;;12.63;100.00;99070.59;4935170;29;20063;-82
2021/09/17 06:34:16;;;;;;;9.77;7.55;;;;;;;12.74;100.00;99079.06;4934103;29;20055;-81
2021/09/17 06:36:42;;;;;;;9.88;7.47;;;;;;;12.84;100.00;99075.97;4921542;29;20060;-83
2021/09/17 06:39:09;;;;;;;13.95;7.35;;;;;;;13.01;100.00;99083.81;4919040;29;20193;-82
2021/09/17 06:41:36;;;;;;;16.13;8.07;;;;;;;12.94;100.00;99091.97;4919484;29;20074;-82
2021/09/17 06:44:03;;;;;;;11.80;7.82;;;;;;;13.03;100.00;99093.47;4916525;29;20054;-82
2021/09/17 06:46:30;;;;;;;12.90;7.63;;;;;;;13.09;100.00;99087.19;4915415;29;20106;-82
2021/09/17 06:48:59;;;;;;;13.75;7.60;;;;;;;13.12;100.00;99085.97;4916073;29;20092;-82
2021/09/17 06:51:26;;;;;;;10.15;7.13;;;;;;;13.06;100.00;99090.34;4933389;29;20056;-82
2021/09/17 06:53:52;;;;;;;13.32;6.95;;;;;;;13.18;100.00;99098.78;4930099;29;20048;-82
2021/09/17 06:56:19;;;;;;;10.25;6.47;;;;;;;13.28;100.00;99103.88;4922549;29;20044;-82
2021/09/17 06:58:46;;;;;;;17.52;6.63;;;;;;;13.14;100.00;99078.41;4923318;29;20048;-82
2021/09/17 07:01:13;;;;;;;11.55;6.40;;;;;;;13.18;100.00;99087.03;4918765;29;20440;-82
2021/09/17 07:03:40;;;;;;;15.07;6.88;;;;;;;13.36;100.00;99101.00;4918958;29;20059;-82
2021/09/17 07:06:08;;;;;;;12.48;6.68;;;;;;;13.51;100.00;99100.00;4915771;29;20412;-82
2021/09/17 07:08:35;;;;;;;13.30;6.88;;;;;;;13.29;100.00;99080.97;4915488;29;20060;-82
2021/09/17 07:11:02;;;;;;;9.68;6.47;;;;;;;13.36;100.00;99101.00;4919849;29;20051;-82
2021/09/17 07:13:29;;;;;;;9.48;6.43;;;;;;;13.33;100.00;99084.16;4918623;29;20390;-82
2021/09/17 07:15:56;;;;;;;10.23;6.05;;;;;;;13.48;100.00;99089.50;4915454;29;20504;-82
2021/09/17 07:18:23;;;;;;;11.48;6.28;;;;;;;13.44;100.00;99089.91;4917315;29;20135;-82
2021/09/17 07:20:50;;;;;;;14.77;6.85;;;;;;;13.59;100.00;99095.19;4920140;29;20052;-82
2021/09/17 07:23:19;;;;;;;9.25;6.80;;;;;;;13.78;100.00;99098.19;4922206;29;20058;-82
2021/09/17 07:25:45;;;;;;;10.38;6.47;;;;;;;13.79;100.00;99088.94;4921845;29;20243;-82
2021/09/17 07:28:15;;;;;;;13.13;6.50;;;;;;;13.86;100.00;99081.56;4921680;29;20063;-82
2021/09/17 07:30:42;;;;;;;16.58;6.55;;;;;;;13.95;100.00;99096.72;4917551;29;20408;-82
2021/09/17 07:33:09;;;;;;;8.40;5.85;;;;;;;13.97;100.00;99094.63;4915798;29;20059;-82
2021/09/17 07:35:36;;;;;;;8.52;6.57;;;;;;;14.01;100.00;99088.75;4933145;29;20063;-82
2021/09/17 07:38:03;;;;;;;12.35;7.20;;;;;;;14.10;100.00;99085.56;4924275;29;20056;-83
2021/09/17 07:40:32;;;;;;;10.48;7.15;;;;;;;14.15;100.00;99098.63;4925180;29;20059;-82
2021/09/17 07:42:59;;;;;;;7.88;6.43;;;;;;;14.16;100.00;99084.75;4921369;29;20496;-82
2021/09/17 07:45:26;;;;;;;10.15;6.25;;;;;;;14.29;100.00;99086.66;4922398;29;20050;-83
2021/09/17 07:47:54;;;;;;;14.07;7.38;;;;;;;14.37;100.00;99102.00;4922959;29;20075;-82
2021/09/17 07:50:21;;;;;;;7.95;6.50;;;;;;;14.39;99.76;99091.69;4937191;29;20075;-82
2021/09/17 07:52:47;;;;;;;11.50;5.63;;;;;;;14.64;97.83;99107.47;4937986;29;20050;-82
2021/09/17 07:55:15;;;;;;;9.57;6.78;;;;;;;14.52;99.38;99088.09;4927850;29;20048;-82
2021/09/17 07:57:43;;;;;;;7.40;6.15;;;;;;;14.66;99.31;99089.81;4935162;29;20058;-82
2021/09/17 08:00:12;;;;;;;13.05;6.32;;;;;;;14.84;98.26;99108.28;4937481;29;20052;-82
2021/09/17 08:02:39;;;;;;;12.50;6.43;;;;;;;15.02;97.71;99104.00;4925652;29;20051;-82
2021/09/17 08:05:07;;;;;;;10.30;6.90;;;;;;;14.94;97.21;99091.41;4922520;29;20051;-82
2021/09/17 08:07:34;;;;;;;13.07;6.80;;;;;;;15.09;95.71;99106.75;4928230;29;20048;-82
2021/09/17 08:10:00;;;;;;;12.27;6.60;;;;;;;15.11;94.66;99085.44;4918728;29;20052;-82
2021/09/17 08:12:27;;;;;;;16.00;7.43;;;;;;;15.23;93.85;99100.16;4919057;29;20059;-82
2021/09/17 08:14:56;;;;;;;9.80;6.75;;;;;;;15.25;93.00;99084.34;4919686;29;20527;-82
2021/09/17 08:17:23;;;;;;;11.52;6.68;;;;;;;15.48;93.24;99111.22;4917720;29;20511;-82
2021/09/17 08:19:49;;;;;;;14.30;7.30;;;;;;;15.49;92.84;99092.84;4934189;29;20058;-83
2021/09/17 08:22:16;;;;;;;12.63;7.70;;;;;;;15.54;92.10;99093.88;4925324;29;20085;-83
2021/09/17 08:24:43;;;;;;;9.88;7.25;;;;;;;15.61;92.78;99096.63;4925952;29;20048;-83
2021/09/17 08:27:10;;;;;;;15.70;8.40;;;;;;;15.71;92.11;99096.13;4918473;29;20052;-82
2021/09/17 08:29:37;;;;;;;11.00;6.72;;;;;;;15.87;92.76;99098.38;4922615;29;20063;-83
2021/09/17 08:32:07;;;;;;;11.10;6.40;;;;;;;15.78;89.42;99091.47;4917932;29;20055;-83
2021/09/17 08:34:33;;;;;;;9.63;6.70;;;;;;;15.71;89.59;99086.00;4919861;29;20418;-82
2021/09/17 08:37:03;;;;;;;12.75;6.97;;;;;;;15.90;90.30;99086.13;4924971;29;20056;-82
2021/09/17 08:39:35;;;;;;;11.18;6.93;;;;;;;15.93;88.76;99086.50;4934935;29;20059;-80
2021/09/17 08:42:04;;;;;;;13.60;7.40;;;;;;;16.00;88.76;99102.06;4938351;29;20103;-81
2021/09/17 08:44:31;;;;;;;13.20;8.10;;;;;;;16.16;88.43;99104.28;4937811;29;20074;-82
2021/09/17 08:47:07;;;;;;;11.52;7.03;;;;;;;16.35;88.84;99096.09;4938135;29;20403;-82
2021/09/17 08:49:37;;;;;;;11.95;6.80;;;;;;;16.46;88.82;99098.13;4936636;29;20059;-82
2021/09/17 08:52:08;;;;;;;9.60;6.70;;;;;;;16.55;87.66;99101.44;4935434;29;20063;-82
2021/09/17 08:54:55;;;;;;;11.35;7.05;;;;;;;16.71;87.00;99100.84;4924556;29;20057;-81
2021/09/17 08:57:22;;;;;;;9.43;6.53;;;;;;;16.84;85.26;99101.78;4916976;29;20056;-82
2021/09/17 08:59:55;;;;;;;12.05;6.85;;;;;;;17.12;86.85;99095.78;4917055;29;20095;-82
2021/09/17 09:02:28;;;;;;;9.13;6.80;;;;;;;17.24;85.32;99082.97;4920067;29;20047;-81
2021/09/17 09:05:04;;;;;;;12.20;6.63;;;;;;;17.09;84.29;99093.50;4920210;29;20060;-81
2021/09/17 09:07:35;;;;;;;10.48;6.57;;;;;;;17.41;83.98;99071.34;4919225;29;20404;-81
2021/09/17 09:10:11;;;;;;;12.73;7.43;;;;;;;17.63;82.13;99091.75;4923676;29;20106;-82
2021/09/17 09:12:43;;;;;;;12.23;6.70;;;;;;;17.73;80.08;99093.91;4936279;29;20131;-82
2021/09/17 09:15:16;;;;;;;10.38;6.50;;;;;;;17.75;77.45;99105.53;4931017;29;20075;-81
2021/09/17 09:17:44;;;;;;;12.73;7.38;;;;;;;17.92;80.82;99103.00;4919608;29;20043;-81
2021/09/17 09:20:26;;;;;;;14.45;6.55;;;;;;;17.93;79.13;99099.19;4935783;29;20051;-81
2021/09/17 09:23:08;;;;;;;12.10;6.35;;;;;;;17.94;80.12;99083.50;4936128;29;20514;-82
2021/09/17 09:25:49;;;;;;;11.82;6.93;;;;;;;18.11;78.92;99072.66;4927473;29;20427;-82
2021/09/17 09:28:37;;;;;;;13.48;6.40;;;;;;;17.96;80.96;99078.59;4933211;29;20141;-82
2021/09/17 09:31:33;;;;;;;16.25;7.28;;;;;;;18.07;77.30;99094.31;4932082;29;20051;-81
2021/09/17 09:34:28;;;;;;;9.73;6.35;;;;;;;18.07;79.26;99079.72;4906703;29;20056;-81
2021/09/17 09:37:08;;;;;;;9.95;6.53;;;;;;;18.09;77.65;99080.31;4921527;29;20044;-82
2021/09/17 09:40:02;;;;;;;8.98;6.68;;;;;;;18.02;76.14;99078.50;4916442;29;20523;-82
2021/09/17 09:42:32;;;;;;;9.23;6.07;;;;;;;18.30;76.46;99082.50;4892187;29;20508;-82
2021/09/17 09:45:30;;;;;;;11.73;7.25;;;;;;;18.34;74.79;99075.44;4935008;28;20056;-82
2021/09/17 09:48:34;;;;;;;12.45;7.05;;;;;;;18.11;74.98;99061.66;4883988;29;20114;-81
2021/09/17 09:51:13;;;;;;;9.30;6.55;;;;;;;18.14;77.45;99075.78;4917429;29;20519;-81
2021/09/17 09:53:40;;;;;;;17.55;6.68;;;;;;;17.99;75.25;99056.97;4935545;29;20055;-82
2021/09/17 09:56:07;;;;;;;9.60;5.82;;;;;;;18.07;77.55;99072.31;4935673;28;20404;-81
2021/09/17 09:58:34;;;;;;;10.57;6.85;;;;;;;18.44;78.75;99071.25;4934949;29;20047;-81
2021/09/17 10:01:01;;;;;;;7.65;6.25;;;;;;;18.36;77.42;99065.03;4935407;29;20077;-81
2021/09/17 10:03:28;;;;;;;7.60;5.97;;;;;;;18.33;76.15;99067.44;4935058;29;20084;-82
2021/09/17 10:05:55;;;;;;;14.05;5.50;;;;;;;18.46;76.42;99071.88;4935070;29;20484;-81
2021/09/17 10:08:23;;;;;;;9.00;5.15;;;;;;;18.34;74.17;99056.19;4926014;29;20052;-82
2021/09/17 10:10:50;;;;;;;11.55;6.38;;;;;;;18.21;73.75;99053.66;4921054;29;20112;-82
2021/09/17 10:13:17;;;;;;;12.27;6.68;;;;;;;18.12;73.87;99055.91;4918270;29;20059;-82
2021/09/17 10:15:45;;;;;;;13.35;5.35;;;;;;;18.34;76.48;99052.59;4933893;29;20054;-82
2021/09/17 10:18:13;;;;;;;9.90;4.90;;;;;;;18.46;73.68;99060.88;4929358;29;20062;-82
2021/09/17 10:20:43;;;;;;;12.40;4.80;;;;;;;18.47;73.61;99065.28;4927572;29;20047;-82
2021/09/17 10:23:31;;;;;;;9.95;4.97;;;;;;;18.42;73.51;99051.41;4922886;29;20044;-82
2021/09/17 10:26:15;;;;;;;9.60;4.18;;;;;;;18.37;73.23;99052.94;4919794;29;20449;-82
2021/09/17 10:29:04;;;;;;;6.30;4.00;;;;;;;18.50;74.09;99032.63;4921074;29;20063;-82
2021/09/17 10:31:42;;;;;;;11.70;5.13;;;;;;;18.45;73.11;99057.25;4927881;29;20075;-82
2021/09/17 10:35:13;;;;;;;4.07;3.67;;;;;;;18.78;71.94;99053.06;4934863;29;20500;-82
2021/09/17 10:38:15;;;;;;;7.13;4.22;;;;;;;19.07;72.40;99047.63;4920298;29;20118;-82
2021/09/17 10:40:54;;;;;;;10.43;3.97;;;;;;;19.09;70.12;99027.03;4933842;29;20059;-82
2021/09/17 10:43:29;;;;;;;5.75;3.53;;;;;;;19.13;67.34;99027.38;4934822;29;20059;-82
2021/09/17 10:45:58;;;;;;;8.32;4.13;;;;;;;19.11;64.90;99024.03;4923799;29;20048;-82
2021/09/17 10:48:28;;;;;;;6.27;3.90;;;;;;;19.43;67.51;99042.84;4925261;29;20050;-82
2021/09/17 10:51:06;;;;;;;7.28;4.15;;;;;;;19.53;67.18;99025.69;4920297;29;20420;-81
2021/09/17 10:54:08;;;;;;;13.50;4.38;;;;;;;19.70;67.00;99026.53;4919239;29;20052;-81
2021/09/17 10:57:09;;;;;;;9.73;4.13;;;;;;;19.70;64.60;99023.78;4934628;29;20159;-82
2021/09/17 10:59:53;;;;;;;5.97;4.32;;;;;;;19.47;66.06;99027.50;4917047;29;20087;-82
2021/09/17 11:02:20;;;;;;;6.13;3.72;;;;;;;19.63;67.60;99026.72;4915924;29;20048;-82
2021/09/17 11:04:48;;;;;;;6.47;4.18;;;;;;;19.64;66.26;99020.09;4919244;29;20048;-82
2021/09/17 11:07:36;;;;;;;9.50;4.63;;;;;;;19.75;67.54;99034.06;4923279;29;20345;-82
2021/09/17 11:10:23;;;;;;;10.93;3.67;;;;;;;19.75;68.47;99026.66;4926118;29;20562;-82
2021/09/17 11:13:07;;;;;;;14.60;4.13;;;;;;;19.70;68.96;99020.19;4921024;29;20051;-82
2021/09/17 11:15:36;;;;;;;7.72;5.00;;;;;;;19.56;66.64;99038.97;4930514;29;20068;-83
2021/09/17 11:18:08;;;;;;;7.97;4.70;;;;;;;19.27;66.70;99025.19;4929660;29;20446;-82
2021/09/17 11:20:35;;;;;;;9.10;5.50;;;;;;;19.34;66.12;99031.38;4927174;29;20130;-83
2021/09/17 11:23:04;;;;;;;10.20;4.50;;;;;;;19.69;66.82;99024.88;4922282;29;20047;-83
2021/09/17 11:25:34;;;;;;;8.23;4.43;;;;;;;19.89;64.28;99031.88;4925068;29;20058;-82
2021/09/17 11:28:02;;;;;;;6.32;3.55;;;;;;;19.90;65.53;99025.25;4923844;29;20673;-83
2021/09/17 11:30:32;;;;;;;6.18;3.97;;;;;;;19.87;63.99;99009.22;4920171;29;20056;-82
2021/09/17 11:33:16;;;;;;;4.20;3.55;;;;;;;20.05;61.13;99030.19;4920582;29;20071;-82
2021/09/17 11:35:43;;;;;;;5.30;3.80;;;;;;;19.85;60.24;99014.97;4919903;29;20055;-81